Time;durP1;ratioP1;P1;durP2;ratioP2;P2;SDS_P1;SDS_P2;PMS_P1;PMS_P2;Temp;Humidity;BMP_temperature;BMP_pressure;BME280_temperature;BME280_humidity;BME280_pressure;Samples;Min_cycle;Max_cycle;Signal;HPM_P1;HPM_P2
2022/08/24 00:00:18;;;;;;;0.32;0.32;;;;;;;23.29;61.65;101820.38;5086868;28;20032;-76
2022/08/24 00:02:44;;;;;;;0.10;0.10;;;;;;;23.27;61.79;101824.03;5080339;28;20048;-76
2022/08/24 00:05:11;;;;;;;0.00;0.00;;;;;;;23.27;61.66;101821.34;5074396;28;20097;-74
2022/08/24 00:07:37;;;;;;;0.10;0.10;;;;;;;23.23;62.04;101817.06;5065525;28;20528;-76
2022/08/24 00:10:06;;;;;;;0.10;0.10;;;;;;;23.14;62.34;101817.59;5068503;28;20036;-76
2022/08/24 00:12:32;;;;;;;0.10;0.10;;;;;;;23.22;62.13;101815.31;5065796;28;20059;-75
2022/08/24 00:14:59;;;;;;;0.10;0.10;;;;;;;23.24;61.60;101820.63;5072686;28;20166;-74
2022/08/24 00:17:25;;;;;;;0.10;0.10;;;;;;;23.23;61.75;101813.50;5060830;28;20057;-75
2022/08/24 00:19:52;;;;;;;0.00;0.00;;;;;;;23.21;61.85;101819.00;5067348;28;20032;-75
2022/08/24 00:22:19;;;;;;;0.10;0.10;;;;;;;23.19;62.44;101814.63;5070248;28;20028;-75
2022/08/24 00:24:45;;;;;;;0.10;0.10;;;;;;;23.17;62.36;101812.03;5069933;28;20032;-76
2022/08/24 00:27:12;;;;;;;0.03;0.03;;;;;;;23.14;62.19;101809.47;5066896;28;20578;-76
2022/08/24 00:29:38;;;;;;;0.30;0.30;;;;;;;23.14;62.35;101808.59;5069759;28;20040;-76
2022/08/24 00:32:05;;;;;;;0.20;0.20;;;;;;;23.13;62.22;101814.94;5066299;28;20031;-75
2022/08/24 00:34:31;;;;;;;0.20;0.20;;;;;;;23.12;62.36;101813.25;5061083;28;20429;-76
2022/08/24 00:36:57;;;;;;;0.20;0.20;;;;;;;23.10;62.29;101811.50;5065174;28;20042;-75
2022/08/24 00:39:23;;;;;;;0.28;0.28;;;;;;;23.10;62.46;101814.19;5066704;28;20106;-76
2022/08/24 00:41:51;;;;;;;0.30;0.30;;;;;;;23.09;62.12;101812.44;5068620;28;20027;-76
2022/08/24 00:44:19;;;;;;;0.30;0.30;;;;;;;23.10;62.21;101818.72;5068037;28;20513;-76
2022/08/24 00:46:52;;;;;;;0.30;0.30;;;;;;;23.11;62.11;101817.75;5070219;28;20032;-75
2022/08/24 00:49:27;;;;;;;0.55;0.28;;;;;;;23.15;62.32;101818.44;5066281;28;20025;-76
2022/08/24 00:54:44;;;;;;;0.20;0.20;;;;;;;23.13;62.25;101818.53;5093643;27;20144;-76
2022/08/24 00:57:13;;;;;;;0.10;0.10;;;;;;;23.11;62.39;101815.03;5091803;28;20020;-76
2022/08/24 00:59:51;;;;;;;0.20;0.20;;;;;;;23.14;62.40;101814.00;5086440;28;20625;-76
2022/08/24 01:02:23;;;;;;;0.10;0.10;;;;;;;23.08;62.41;101820.66;5080314;28;20036;-76
2022/08/24 01:04:55;;;;;;;0.45;0.45;;;;;;;23.06;62.58;101815.31;5080720;28;20507;-75
2022/08/24 01:07:23;;;;;;;;;;;;;;;23.16;62.19;101812.97;5076839;28;20501;-75
2022/08/24 01:09:52;;;;;;;0.10;0.10;;;;;;;23.02;62.39;101811.03;5078645;28;19919;-76
2022/08/24 01:12:19;;;;;;;0.10;0.10;;;;;;;22.98;62.38;101805.91;5078637;28;20028;-76
2022/08/24 01:14:46;;;;;;;0.00;0.00;;;;;;;22.94;62.48;101808.78;5079783;28;20048;-75
2022/08/24 01:20:02;;;;;;;0.20;0.20;;;;;;;22.91;62.68;101806.25;5073772;28;20036;-76
2022/08/24 01:22:56;;;;;;;0.55;0.55;;;;;;;22.94;62.62;101803.38;5083464;28;20062;-75
2022/08/24 01:25:26;;;;;;;3.90;2.05;;;;;;;22.88;62.75;101801.03;5080895;28;20508;-76
2022/08/24 01:27:55;;;;;;;0.10;0.10;;;;;;;22.86;62.44;101808.34;5076813;28;20036;-76
2022/08/24 01:30:22;;;;;;;0.00;0.00;;;;;;;22.86;62.85;101808.34;5080924;28;20478;-76
2022/08/24 01:33:06;;;;;;;0.00;0.00;;;;;;;22.94;62.78;101808.78;5079768;28;20036;-76
2022/08/24 01:35:34;;;;;;;0.00;0.00;;;;;;;22.86;62.75;101802.94;5074526;28;20090;-76
2022/08/24 01:38:03;;;;;;;0.68;0.68;;;;;;;22.86;62.70;101802.94;5086365;28;20028;-76
2022/08/24 01:40:38;;;;;;;0.10;0.10;;;;;;;22.89;62.93;101810.88;5083283;28;20024;-76
2022/08/24 01:43:06;;;;;;;0.20;0.20;;;;;;;22.85;63.01;101809.28;5080278;28;20078;-76
2022/08/24 01:45:33;;;;;;;0.10;0.10;;;;;;;22.83;62.81;101810.34;5081575;28;20032;-76
2022/08/24 01:48:01;;;;;;;0.28;0.28;;;;;;;22.84;63.06;101815.69;5082968;28;20435;-77
2022/08/24 01:50:28;;;;;;;0.10;0.10;;;;;;;22.84;62.75;101821.09;5084486;28;20406;-76
2022/08/24 01:52:57;;;;;;;0.40;0.40;;;;;;;22.83;62.81;101819.34;5083241;28;20020;-76
2022/08/24 01:55:24;;;;;;;0.20;0.20;;;;;;;22.81;63.40;101825.78;5079027;28;20350;-77
2022/08/24 01:57:50;;;;;;;1.00;0.90;;;;;;;22.82;63.00;101828.41;5087429;28;20051;-76
2022/08/24 02:00:17;;;;;;;0.10;0.10;;;;;;;22.81;62.92;101823.94;5081421;28;20488;-75
2022/08/24 02:02:44;;;;;;;0.10;0.10;;;;;;;22.81;62.68;101832.06;5080851;28;20039;-76
2022/08/24 02:05:13;;;;;;;0.10;0.10;;;;;;;22.80;62.90;101822.19;5070054;28;20033;-76
2022/08/24 02:07:39;;;;;;;0.65;0.65;;;;;;;22.81;63.25;101817.69;5070919;28;20036;-76
2022/08/24 02:10:08;;;;;;;0.63;0.40;;;;;;;22.82;63.14;101824.81;5061168;28;20044;-76
2022/08/24 02:12:36;;;;;;;0.20;0.20;;;;;;;22.81;63.03;101821.25;5070790;28;20067;-76
2022/08/24 02:15:05;;;;;;;0.00;0.00;;;;;;;22.83;63.09;101819.34;5057341;28;20524;-77
2022/08/24 02:17:31;;;;;;;0.35;0.35;;;;;;;22.84;63.07;101825.59;5068119;28;20039;-76
2022/08/24 02:19:57;;;;;;;0.10;0.10;;;;;;;22.82;63.13;101817.59;5072782;28;20126;-77
2022/08/24 02:22:23;;;;;;;0.00;0.00;;;;;;;22.82;63.22;101817.59;5062984;28;20029;-76
2022/08/24 02:24:50;;;;;;;0.30;0.30;;;;;;;22.81;63.26;101826.66;5075256;28;20032;-77
2022/08/24 02:27:16;;;;;;;0.32;0.32;;;;;;;22.80;63.04;101830.31;5066264;28;20054;-77
2022/08/24 02:29:43;;;;;;;0.10;0.10;;;;;;;22.79;63.33;101823.16;5064225;28;22141;-77
2022/08/24 02:32:11;;;;;;;0.08;0.08;;;;;;;22.77;63.00;101825.94;5061889;28;20070;-76
2022/08/24 02:34:37;;;;;;;0.28;0.28;;;;;;;22.76;63.19;101823.34;5064453;28;20047;-77
2022/08/24 02:37:04;;;;;;;0.10;0.10;;;;;;;22.75;63.47;101816.19;5075940;28;20056;-77
2022/08/24 02:39:30;;;;;;;0.17;0.17;;;;;;;22.74;63.36;101819.84;5073072;28;20040;-77
2022/08/24 02:41:56;;;;;;;0.10;0.10;;;;;;;22.74;63.16;101822.53;5061018;28;20040;-77
2022/08/24 02:44:23;;;;;;;0.35;0.35;;;;;;;22.73;63.51;101834.28;5066511;28;20048;-75
2022/08/24 02:46:49;;;;;;;0.15;0.15;;;;;;;22.72;63.40;101832.59;5069145;28;20032;-77
2022/08/24 02:49:15;;;;;;;0.43;0.43;;;;;;;22.72;63.44;101827.19;5067390;28;20028;-77
2022/08/24 02:51:45;;;;;;;0.32;0.25;;;;;;;22.73;63.38;101831.59;5073391;28;20544;-77
2022/08/24 02:54:16;;;;;;;0.10;0.10;;;;;;;22.72;63.68;101843.38;5067875;28;20088;-77
2022/08/24 02:56:43;;;;;;;0.93;0.93;;;;;;;22.72;63.59;101837.97;5067663;28;20115;-76
2022/08/24 02:59:09;;;;;;;0.30;0.30;;;;;;;22.71;63.50;101841.63;5068017;28;20470;-77
2022/08/24 03:01:35;;;;;;;0.75;0.75;;;;;;;22.71;63.52;101837.09;5071185;28;20040;-77
2022/08/24 03:04:01;;;;;;;0.00;0.00;;;;;;;22.70;63.54;101839.88;5064909;28;20070;-77
2022/08/24 03:06:28;;;;;;;0.20;0.20;;;;;;;22.69;63.50;101844.44;5068816;28;20112;-77
2022/08/24 03:08:55;;;;;;;0.85;0.45;;;;;;;22.67;63.71;101831.94;5076480;28;20429;-76
2022/08/24 03:11:21;;;;;;;0.85;0.73;;;;;;;22.66;63.40;101827.53;5064954;28;20434;-77
2022/08/24 03:13:48;;;;;;;0.30;0.30;;;;;;;22.64;63.47;101832.13;5064085;28;20033;-76
2022/08/24 03:16:15;;;;;;;0.10;0.10;;;;;;;22.61;63.40;101827.75;5061456;28;20067;-76
2022/08/24 03:18:41;;;;;;;0.10;0.10;;;;;;;22.60;63.43;101832.31;5058141;28;20383;-76
2022/08/24 03:21:08;;;;;;;0.10;0.10;;;;;;;22.60;63.59;101835.00;5056159;28;20482;-76
2022/08/24 03:23:35;;;;;;;0.10;0.10;;;;;;;22.61;63.34;101833.16;5065596;28;20029;-76
2022/08/24 03:26:02;;;;;;;0.05;0.05;;;;;;;22.61;63.38;101830.47;5069916;28;20073;-76
2022/08/24 03:28:28;;;;;;;0.20;0.20;;;;;;;22.60;63.21;101828.72;5064878;28;20419;-76
2022/08/24 03:30:54;;;;;;;0.10;0.10;;;;;;;22.60;63.57;101828.72;5062891;28;20032;-76
2022/08/24 03:33:20;;;;;;;0.15;0.15;;;;;;;22.61;63.17;101841.28;5069472;28;20013;-76
2022/08/24 03:35:47;;;;;;;0.13;0.13;;;;;;;22.52;63.81;101831.84;5058961;28;20032;-77
2022/08/24 03:38:13;;;;;;;0.00;0.00;;;;;;;22.46;64.14;101835.75;5072048;28;20055;-77
2022/08/24 03:40:40;;;;;;;0.17;0.17;;;;;;;22.44;64.30;101836.78;5070388;28;20028;-75
2022/08/24 03:43:08;;;;;;;0.30;0.30;;;;;;;22.45;64.05;101830.44;5059643;28;20029;-76
2022/08/24 03:45:34;;;;;;;0.03;0.03;;;;;;;22.43;64.26;101826.94;5068319;28;20051;-77
2022/08/24 03:48:00;;;;;;;0.10;0.10;;;;;;;22.42;63.93;101830.63;5062344;28;20108;-76
2022/08/24 03:50:26;;;;;;;0.10;0.10;;;;;;;22.41;64.25;101829.72;5066168;28;20409;-77
2022/08/24 03:52:52;;;;;;;0.38;0.38;;;;;;;22.41;64.34;101828.88;5069263;28;20027;-76
2022/08/24 03:55:19;;;;;;;0.10;0.10;;;;;;;22.39;64.22;101833.47;5067204;28;20124;-76
2022/08/24 03:57:45;;;;;;;0.10;0.10;;;;;;;22.39;64.20;101837.06;5064343;28;20028;-76
2022/08/24 04:00:13;;;;;;;0.10;0.10;;;;;;;22.38;64.24;101831.72;5064256;28;20028;-76
2022/08/24 04:02:39;;;;;;;0.00;0.00;;;;;;;22.35;64.45;101831.88;5065390;28;20037;-76
2022/08/24 04:05:06;;;;;;;0.10;0.10;;;;;;;22.34;64.41;101832.81;5056741;28;20036;-76
2022/08/24 04:07:32;;;;;;;0.10;0.10;;;;;;;22.46;64.06;101826.78;5063167;28;20040;-76
2022/08/24 04:09:59;;;;;;;0.20;0.20;;;;;;;22.48;63.50;101827.59;5064854;28;20032;-76
2022/08/24 04:12:25;;;;;;;0.40;0.40;;;;;;;22.48;63.84;101835.69;5065613;28;20033;-76
2022/08/24 04:14:54;;;;;;;0.10;0.10;;;;;;;22.48;63.76;101842.88;5063331;28;20093;-76
2022/08/24 04:17:20;;;;;;;0.10;0.10;;;;;;;22.34;64.10;101840.91;5056557;28;20029;-76
2022/08/24 04:20:02;;;;;;;0.10;0.10;;;;;;;22.29;64.31;101839.34;5057353;28;20060;-76
2022/08/24 04:22:30;;;;;;;0.10;0.10;;;;;;;22.27;64.26;101838.53;5066985;28;20508;-76
2022/08/24 04:24:56;;;;;;;0.10;0.10;;;;;;;22.23;64.33;101836.97;5062091;28;20036;-76
2022/08/24 04:27:22;;;;;;;0.10;0.10;;;;;;;22.23;64.28;101842.38;5058545;28;20040;-77
2022/08/24 04:29:49;;;;;;;0.10;0.10;;;;;;;22.23;64.13;101845.06;5067741;28;20186;-77
2022/08/24 04:32:16;;;;;;;0.10;0.10;;;;;;;22.22;64.35;101842.44;5062041;28;20028;-77
2022/08/24 04:34:44;;;;;;;0.10;0.10;;;;;;;22.22;64.30;101846.03;5057747;28;20360;-76
2022/08/24 04:37:10;;;;;;;3.60;1.42;;;;;;;22.21;64.58;101848.81;5065702;28;20041;-77
2022/08/24 04:39:37;;;;;;;0.13;0.13;;;;;;;22.20;64.49;101845.22;5065888;28;20032;-76
2022/08/24 04:42:03;;;;;;;0.73;0.73;;;;;;;22.19;64.62;101846.16;5057912;28;20043;-77
2022/08/24 04:44:30;;;;;;;0.08;0.08;;;;;;;22.17;64.39;101840.00;5059249;28;20042;-76
2022/08/24 04:46:56;;;;;;;0.10;0.10;;;;;;;22.15;64.76;101841.91;5061009;28;20037;-76
2022/08/24 04:49:22;;;;;;;0.40;0.40;;;;;;;22.15;64.78;101850.00;5058897;28;20440;-76
2022/08/24 04:51:48;;;;;;;0.52;0.52;;;;;;;22.16;64.81;101853.56;5059232;28;20486;-76
2022/08/24 04:54:15;;;;;;;0.10;0.10;;;;;;;22.15;64.84;101850.00;5068266;28;20040;-76
2022/08/24 04:56:41;;;;;;;0.98;0.73;;;;;;;22.17;65.00;101856.19;5062763;28;20037;-76
2022/08/24 04:59:07;;;;;;;0.10;0.10;;;;;;;22.19;64.76;101851.56;5063855;28;20118;-76
2022/08/24 05:01:34;;;;;;;0.20;0.20;;;;;;;22.20;64.86;101852.47;5065856;28;20028;-76
2022/08/24 05:04:01;;;;;;;0.10;0.10;;;;;;;22.21;64.93;101855.06;5067935;28;20028;-75
2022/08/24 05:06:31;;;;;;;0.10;0.10;;;;;;;22.23;65.07;101858.56;5061734;28;20032;-76
2022/08/24 05:08:59;;;;;;;0.10;0.10;;;;;;;22.26;64.77;101855.69;5067848;28;20040;-76
2022/08/24 05:11:25;;;;;;;0.22;0.22;;;;;;;22.29;64.79;101858.25;5064323;28;20482;-76
2022/08/24 05:13:53;;;;;;;0.20;0.20;;;;;;;22.33;64.93;101858.94;5070514;28;20024;-76
2022/08/24 05:16:19;;;;;;;0.17;0.17;;;;;;;22.35;65.00;101862.41;5067780;28;20028;-76
2022/08/24 05:18:45;;;;;;;1.77;0.30;;;;;;;22.41;64.89;101861.25;5058188;28;20028;-76
2022/08/24 05:21:15;;;;;;;0.30;0.30;;;;;;;22.47;64.88;101871.75;5063431;28;20093;-76
2022/08/24 05:23:42;;;;;;;1.95;0.57;;;;;;;22.51;64.98;101861.66;5059916;28;20044;-76
2022/08/24 05:26:11;;;;;;;0.10;0.10;;;;;;;22.58;64.86;101863.03;5074419;28;20067;-76
2022/08/24 05:28:38;;;;;;;0.52;0.52;;;;;;;22.62;65.05;101868.19;5065210;28;20031;-76
2022/08/24 05:31:10;;;;;;;0.10;0.10;;;;;;;22.70;65.02;101877.72;5057651;28;20036;-76
2022/08/24 05:33:37;;;;;;;0.10;0.10;;;;;;;22.73;65.00;101875.72;5068758;28;20039;-75
2022/08/24 05:36:05;;;;;;;0.10;0.10;;;;;;;22.77;64.83;101869.16;5064812;28;20045;-77
2022/08/24 05:38:32;;;;;;;0.10;0.10;;;;;;;22.83;64.77;101865.28;5064679;28;20069;-77
2022/08/24 05:41:03;;;;;;;0.10;0.10;;;;;;;22.91;64.79;101865.69;5067274;28;20074;-78
2022/08/24 05:43:29;;;;;;;0.10;0.10;;;;;;;22.98;64.84;101866.25;5073389;28;20028;-77
2022/08/24 05:45:56;;;;;;;0.20;0.20;;;;;;;23.02;64.97;101870.50;5065081;28;20025;-78
2022/08/24 05:48:22;;;;;;;0.32;0.32;;;;;;;23.08;64.87;101867.47;5072049;28;20478;-76
2022/08/24 05:50:53;;;;;;;0.10;0.10;;;;;;;23.15;64.75;101869.81;5071216;28;20039;-78
2022/08/24 05:53:19;;;;;;;0.13;0.13;;;;;;;23.19;64.66;101875.00;5064763;28;20603;-78
2022/08/24 05:55:46;;;;;;;0.10;0.10;;;;;;;23.35;64.24;101858.78;5074970;28;20025;-79
2022/08/24 05:58:12;;;;;;;0.10;0.10;;;;;;;23.47;63.98;101872.53;5066386;28;20036;-77
2022/08/24 06:00:38;;;;;;;0.25;0.25;;;;;;;23.54;63.61;101868.47;5064383;28;20032;-78
2022/08/24 06:03:07;;;;;;;0.10;0.10;;;;;;;23.58;63.50;101870.94;5065731;28;20028;-78
2022/08/24 06:05:37;;;;;;;0.00;0.00;;;;;;;23.64;63.23;101868.81;5063455;28;20128;-78
2022/08/24 06:08:03;;;;;;;0.10;0.10;;;;;;;23.67;63.23;101871.34;5059009;28;20097;-78
2022/08/24 06:10:29;;;;;;;0.10;0.10;;;;;;;23.70;63.26;101863.94;5066463;28;20047;-78
2022/08/24 06:12:56;;;;;;;0.10;0.10;;;;;;;23.75;63.00;101879.88;5067147;28;20115;-78
2022/08/24 06:15:22;;;;;;;0.10;0.10;;;;;;;23.77;63.12;101869.84;5054324;28;20106;-78
2022/08/24 06:17:49;;;;;;;0.10;0.10;;;;;;;23.81;63.29;101868.69;5056146;28;20029;-78
2022/08/24 06:20:15;;;;;;;5.55;1.48;;;;;;;23.85;63.57;101872.97;5059140;28;20028;-78
2022/08/24 06:22:43;;;;;;;0.10;0.10;;;;;;;23.80;63.72;101877.78;5061738;28;20086;-78
2022/08/24 06:27:55;;;;;;;0.30;0.20;;;;;;;23.86;63.81;101880.13;5057530;28;20056;-78
2022/08/24 06:30:21;;;;;;;0.10;0.10;;;;;;;23.93;63.63;101885.22;5059166;28;20544;-78
2022/08/24 06:32:47;;;;;;;0.10;0.10;;;;;;;23.96;63.66;101883.16;5055068;28;20120;-78
2022/08/24 06:35:14;;;;;;;0.30;0.30;;;;;;;24.01;63.26;101882.88;5055740;28;20056;-78
2022/08/24 06:37:40;;;;;;;0.10;0.10;;;;;;;24.05;63.14;101890.75;5064725;28;20490;-78
2022/08/24 06:40:09;;;;;;;0.10;0.10;;;;;;;24.10;63.46;101887.75;5074134;28;20036;-78
2022/08/24 06:42:36;;;;;;;0.20;0.20;;;;;;;24.09;63.78;101902.25;5067420;28;20033;-80
2022/08/24 06:45:02;;;;;;;0.10;0.10;;;;;;;24.13;63.39;101887.56;5067221;28;20028;-80
2022/08/24 06:47:28;;;;;;;0.05;0.05;;;;;;;24.17;63.30;101894.53;5062418;28;20035;-80
2022/08/24 06:49:57;;;;;;;0.10;0.10;;;;;;;24.20;63.71;101893.47;5066218;28;20152;-79
2022/08/24 06:52:23;;;;;;;0.43;0.43;;;;;;;24.21;63.22;101890.69;5063210;28;20060;-79
2022/08/24 06:54:49;;;;;;;0.10;0.10;;;;;;;24.23;63.43;101877.91;5071460;28;20079;-79
2022/08/24 06:57:16;;;;;;;0.28;0.28;;;;;;;24.28;63.33;101890.31;5076959;28;20025;-81
2022/08/24 06:59:43;;;;;;;0.28;0.28;;;;;;;24.34;63.30;101892.63;5079853;28;20043;-80
2022/08/24 07:02:11;;;;;;;0.10;0.10;;;;;;;24.39;63.63;101890.50;5072872;28;20089;-78
2022/08/24 07:04:39;;;;;;;0.10;0.10;;;;;;;24.44;63.38;101882.97;5075037;28;20114;-79
2022/08/24 07:07:05;;;;;;;0.30;0.30;;;;;;;24.49;64.01;101888.97;5067822;28;20021;-79
2022/08/24 07:09:32;;;;;;;0.30;0.30;;;;;;;24.69;63.18;101895.00;5072812;28;20032;-79
2022/08/24 07:11:59;;;;;;;0.10;0.10;;;;;;;24.75;62.96;101889.19;5066260;28;20024;-82
2022/08/24 07:14:25;;;;;;;0.10;0.10;;;;;;;24.78;62.98;101893.56;5067361;28;20017;-80
2022/08/24 07:16:51;;;;;;;0.10;0.10;;;;;;;24.85;62.74;101893.06;5074552;28;20063;-79
2022/08/24 07:19:17;;;;;;;0.10;0.10;;;;;;;24.97;62.18;101890.53;5080892;28;20025;-79
2022/08/24 07:21:43;;;;;;;0.40;0.40;;;;;;;25.05;61.62;101901.75;5074678;28;20048;-80
2022/08/24 07:24:10;;;;;;;0.32;0.32;;;;;;;25.12;62.31;101900.38;5086243;28;20073;-79
2022/08/24 07:26:37;;;;;;;0.22;0.22;;;;;;;25.19;62.07;101904.41;5088942;28;20051;-79
2022/08/24 07:29:09;;;;;;;0.10;0.10;;;;;;;25.26;61.87;101904.00;5076704;28;20499;-79
2022/08/24 07:31:38;;;;;;;0.20;0.20;;;;;;;25.30;61.88;101900.16;5072653;28;20127;-80
2022/08/24 07:34:07;;;;;;;0.28;0.28;;;;;;;25.39;61.27;101901.41;5074207;28;20088;-79
2022/08/24 07:36:34;;;;;;;0.55;0.52;;;;;;;25.45;61.43;101901.88;5083517;28;20027;-80
2022/08/24 07:39:04;;;;;;;0.17;0.17;;;;;;;25.57;61.32;101904.72;5084015;28;20435;-79
2022/08/24 07:41:36;;;;;;;0.10;0.10;;;;;;;25.59;60.77;101905.50;5087690;28;20070;-79
2022/08/24 07:44:02;;;;;;;0.10;0.10;;;;;;;25.70;60.67;101919.22;5076796;28;20055;-79
2022/08/24 07:46:28;;;;;;;0.10;0.10;;;;;;;25.79;60.29;101906.88;5081181;28;20052;-78
2022/08/24 07:48:54;;;;;;;0.10;0.10;;;;;;;25.88;60.25;101913.50;5069249;28;20058;-79
2022/08/24 07:51:20;;;;;;;0.10;0.10;;;;;;;25.96;60.08;101906.59;5075997;28;20025;-78
2022/08/24 07:53:46;;;;;;;0.10;0.10;;;;;;;26.01;59.42;101911.72;5088884;28;20033;-79
2022/08/24 07:56:13;;;;;;;0.10;0.10;;;;;;;26.09;59.25;101906.63;5071908;28;20037;-81
2022/08/24 07:58:39;;;;;;;2.90;0.35;;;;;;;26.12;59.34;101909.16;5075049;28;20037;-81
2022/08/24 08:01:14;;;;;;;3.00;0.52;;;;;;;26.19;57.92;101914.16;5070643;28;20055;-81
2022/08/24 08:03:41;;;;;;;0.38;0.38;;;;;;;26.22;57.59;101920.25;5065944;28;20024;-81
2022/08/24 08:06:19;;;;;;;0.10;0.10;;;;;;;26.28;58.54;101921.66;5071875;28;20028;-81
2022/08/24 08:08:45;;;;;;;0.68;0.25;;;;;;;26.39;58.27;101915.47;5067715;28;20055;-80
2022/08/24 08:11:12;;;;;;;0.40;0.40;;;;;;;26.45;58.12;101918.63;5076132;28;20058;-80
2022/08/24 08:13:38;;;;;;;0.20;0.20;;;;;;;26.53;58.09;101922.66;5064806;28;20031;-82
2022/08/24 08:16:07;;;;;;;0.30;0.30;;;;;;;26.60;58.01;101923.94;5064802;28;20549;-81
2022/08/24 08:18:36;;;;;;;0.03;0.03;;;;;;;26.62;57.86;101928.31;5072548;28;20032;-81
2022/08/24 08:21:04;;;;;;;0.15;0.15;;;;;;;26.69;56.93;101925.16;5076300;28;20025;-81
2022/08/24 08:26:19;;;;;;;0.10;0.10;;;;;;;26.85;56.83;101924.94;5074512;28;20036;-80
2022/08/24 08:28:45;;;;;;;0.10;0.10;;;;;;;26.95;56.93;101928.72;5073494;28;20029;-80
2022/08/24 08:31:12;;;;;;;2.17;1.38;;;;;;;27.00;56.85;101925.69;5080881;28;20474;-79
2022/08/24 08:33:38;;;;;;;0.10;0.10;;;;;;;27.09;56.96;101933.16;5074496;28;20052;-79
2022/08/24 08:36:09;;;;;;;0.45;0.45;;;;;;;27.06;57.00;101936.97;5073427;28;20029;-78
2022/08/24 08:38:36;;;;;;;0.10;0.10;;;;;;;27.11;56.79;101936.66;5079998;28;20058;-77
2022/08/24 08:41:30;;;;;;;0.52;0.52;;;;;;;27.24;56.65;101933.88;5070681;28;20283;-79
2022/08/24 08:44:03;;;;;;;0.30;0.30;;;;;;;27.21;55.77;101936.84;5074556;28;20044;-79
2022/08/24 08:47:05;;;;;;;0.60;0.55;;;;;;;27.39;55.25;101931.88;5068102;28;20029;-82
2022/08/24 08:58:01;;;;;;;0.47;0.32;;;;;;;27.74;54.67;101933.84;5070153;28;20417;-80
2022/08/24 09:01:02;;;;;;;0.00;0.00;;;;;;;27.87;54.73;101937.34;5069381;28;20568;-79
2022/08/24 09:09:10;;;;;;;0.10;0.10;;;;;;;27.85;54.35;101938.47;5066282;28;20406;-79
2022/08/24 09:14:49;;;;;;;0.10;0.10;;;;;;;28.14;52.86;101943.53;5134322;27;20390;-78
2022/08/24 09:20:35;;;;;;;0.10;0.10;;;;;;;28.32;52.55;101942.09;5079520;28;20395;-81
2022/08/24 09:23:20;;;;;;;0.10;0.10;;;;;;;28.41;52.18;101935.94;5065959;28;20559;-82
2022/08/24 09:28:49;;;;;;;0.20;0.20;;;;;;;28.50;53.06;101947.09;5132394;27;20383;-78
2022/08/24 09:42:43;;;;;;;0.28;0.28;;;;;;;29.24;51.35;101943.91;5082171;27;1339304;-82
2022/08/24 09:45:47;;;;;;;0.45;0.45;;;;;;;29.31;50.56;101942.47;5106696;28;20754;-82
2022/08/24 09:51:46;;;;;;;0.10;0.10;;;;;;;29.47;48.80;101935.69;5086140;27;20763;-83
2022/08/24 09:54:44;;;;;;;0.10;0.10;;;;;;;29.60;49.99;101936.41;5069406;28;20693;-83
2022/08/24 10:00:15;;;;;;;0.28;0.28;;;;;;;29.72;48.83;101937.25;5097235;27;1353283;-82
2022/08/24 10:03:22;;;;;;;0.10;0.10;;;;;;;29.82;48.69;101934.59;5103540;28;20036;-86
2022/08/24 10:09:06;;;;;;;0.30;0.30;;;;;;;30.04;48.63;101930.06;5106006;27;1360077;-83
2022/08/24 10:12:00;;;;;;;0.45;0.45;;;;;;;30.17;47.32;101919.81;5108286;28;20063;-78
2022/08/24 10:14:59;;;;;;;0.43;0.38;;;;;;;30.17;47.68;101919.81;5125049;27;20110;-78
2022/08/24 10:27:05;;;;;;;0.10;0.10;;;;;;;30.23;47.29;101913.78;5134144;27;20376;-79
2022/08/24 10:29:48;;;;;;;0.20;0.20;;;;;;;30.31;47.60;101911.25;5106830;28;20023;-80
2022/08/24 10:32:41;;;;;;;0.32;0.32;;;;;;;30.32;46.27;101912.13;5098033;28;20393;-81
2022/08/24 10:35:16;;;;;;;0.35;0.35;;;;;;;30.36;45.67;101912.69;5096650;28;20024;-80
2022/08/24 10:40:53;;;;;;;0.10;0.10;;;;;;;30.33;45.93;101909.25;5165647;27;20895;-80
2022/08/24 10:51:35;;;;;;;0.20;0.20;;;;;;;30.05;47.28;101916.25;5116285;27;20397;-80
2022/08/24 10:54:03;;;;;;;0.00;0.00;;;;;;;29.99;48.98;101911.31;5098256;28;20044;-80
2022/08/24 11:02:08;;;;;;;0.25;0.25;;;;;;;30.04;48.47;101903.59;5108249;27;20384;-84
2022/08/24 11:04:36;;;;;;;0.00;0.00;;;;;;;30.02;47.52;101905.63;5109320;28;20576;-85
2022/08/24 11:12:29;;;;;;;0.00;0.00;;;;;;;30.55;47.00;101890.97;5106891;27;20385;-80
2022/08/24 11:14:59;;;;;;;0.10;0.10;;;;;;;30.72;46.44;101896.78;5087510;28;20039;-80
2022/08/24 11:17:29;;;;;;;0.20;0.20;;;;;;;30.97;47.35;101890.00;5086540;28;20517;-80
2022/08/24 11:19:58;;;;;;;0.00;0.00;;;;;;;31.26;46.93;101890.06;5087193;28;20155;-80
2022/08/24 11:23:02;;;;;;;0.00;0.00;;;;;;;31.58;43.18;101888.97;5085190;28;20032;-80
2022/08/24 11:25:32;;;;;;;0.10;0.10;;;;;;;31.93;44.16;101893.00;5094032;28;20058;-80
2022/08/24 11:28:22;;;;;;;0.00;0.00;;;;;;;32.01;39.95;101888.66;5092143;28;20021;-80
2022/08/24 11:30:48;;;;;;;0.10;0.10;;;;;;;32.17;39.44;101883.44;5086816;28;20033;-80
2022/08/24 11:33:33;;;;;;;0.15;0.15;;;;;;;32.41;40.54;101880.25;5087452;28;20063;-80
2022/08/24 11:36:06;;;;;;;0.10;0.10;;;;;;;32.56;42.01;101883.38;5087676;28;20056;-80
2022/08/24 11:38:33;;;;;;;0.00;0.00;;;;;;;32.69;40.10;101876.66;5089711;28;20021;-80
2022/08/24 11:44:10;;;;;;;3.50;0.43;;;;;;;32.99;39.74;101877.41;5128524;27;20388;-79
2022/08/24 11:49:32;;;;;;;0.10;0.10;;;;;;;33.05;40.34;101883.13;5170557;27;20381;-80
2022/08/24 11:57:27;;;;;;;0.32;0.20;;;;;;;33.30;39.09;101869.69;5129591;27;20135;-80
2022/08/24 12:02:37;;;;;;;0.00;0.00;;;;;;;33.20;39.87;101872.47;5106869;27;20358;-85
2022/08/24 12:05:27;;;;;;;0.05;0.05;;;;;;;33.24;38.06;101873.03;5098120;28;20100;-86
2022/08/24 12:08:13;;;;;;;0.10;0.10;;;;;;;33.36;38.77;101866.34;5106545;28;20043;-85
2022/08/24 12:13:35;;;;;;;0.35;0.32;;;;;;;33.35;37.61;101863.75;5117857;27;20741;-85
2022/08/24 12:16:11;;;;;;;0.20;0.20;;;;;;;33.35;41.48;101866.50;5119597;27;20036;-85
2022/08/24 12:19:17;;;;;;;0.00;0.00;;;;;;;33.41;38.20;101860.38;5109958;28;20055;-85
2022/08/24 12:21:48;;;;;;;0.00;0.00;;;;;;;33.33;40.73;101861.13;5108490;28;20033;-85
2022/08/24 12:24:22;;;;;;;5.20;0.30;;;;;;;33.32;38.83;101856.69;5110220;28;20038;-86
2022/08/24 12:26:56;;;;;;;1.58;1.48;;;;;;;33.30;38.05;101860.59;5111052;28;20042;-86
2022/08/24 12:29:45;;;;;;;0.22;0.22;;;;;;;33.24;38.29;101864.81;5113053;27;20030;-85
2022/08/24 12:32:18;;;;;;;0.10;0.10;;;;;;;33.29;37.50;101862.47;5108095;28;20028;-85
2022/08/24 12:35:07;;;;;;;0.10;0.10;;;;;;;33.44;38.32;101865.53;5109119;28;20063;-85
2022/08/24 12:40:41;;;;;;;0.38;0.38;;;;;;;33.41;39.87;101865.88;5110351;27;20369;-85
2022/08/24 12:46:00;;;;;;;0.10;0.10;;;;;;;33.57;40.88;101864.28;5110134;27;20393;-80
2022/08/24 12:48:49;;;;;;;0.00;0.00;;;;;;;33.73;40.00;101861.66;5102443;28;20025;-80
2022/08/24 12:51:39;;;;;;;0.10;0.10;;;;;;;33.90;40.93;101864.56;5096046;28;20017;-80
2022/08/24 12:57:01;;;;;;;0.28;0.28;;;;;;;34.26;38.71;101862.59;5130548;27;20404;-80
2022/08/24 12:59:43;;;;;;;0.00;0.00;;;;;;;34.27;36.78;101868.94;5116958;28;20046;-80
2022/08/24 13:07:36;;;;;;;0.10;0.10;;;;;;;33.59;38.21;101868.59;5087217;27;2121574;-80
2022/08/24 13:10:13;;;;;;;0.20;0.20;;;;;;;33.57;38.87;101867.03;5138648;28;20094;-80
2022/08/24 13:23:26;;;;;;;0.10;0.10;;;;;;;33.05;40.09;101860.31;5151534;27;1225927;-81
2022/08/24 13:25:58;;;;;;;0.10;0.10;;;;;;;33.00;39.52;101862.63;5168577;27;20018;-80
2022/08/24 13:31:22;;;;;;;0.43;0.43;;;;;;;32.94;38.99;101858.66;5122111;27;1239910;-80
2022/08/24 13:42:09;;;;;;;0.20;0.20;;;;;;;32.74;41.28;101849.63;5117351;27;1219887;-81
2022/08/24 13:45:07;;;;;;;0.03;0.03;;;;;;;32.80;41.41;101856.41;5130477;28;20095;-82
2022/08/24 13:47:55;;;;;;;0.10;0.10;;;;;;;32.79;41.32;101850.06;5137876;28;20034;-80
2022/08/24 13:53:40;;;;;;;1.35;0.35;;;;;;;32.80;42.29;101851.78;5147892;27;20428;-81
2022/08/24 13:56:33;;;;;;;0.15;0.15;;;;;;;32.81;42.03;101852.66;5147761;28;20449;-80
2022/08/24 13:59:39;;;;;;;0.00;0.00;;;;;;;32.80;42.62;101849.06;5144611;28;20028;-80
2022/08/24 14:07:29;;;;;;;0.32;0.32;;;;;;;32.73;40.45;101856.97;5120922;27;1238066;-80